Time;durP1;ratioP1;P1;durP2;ratioP2;P2;SDS_P1;SDS_P2;PMS_P1;PMS_P2;Temp;Humidity;BMP_temperature;BMP_pressure;BME280_temperature;BME280_humidity;BME280_pressure;Samples;Min_cycle;Max_cycle;Signal;HPM_P1;HPM_P2
2023/03/19 00:01:28;;;;;;;46.97;28.63;;;9.90;99.90;;;;;;5033617;28;20211;-72
2023/03/19 00:03:54;;;;;;;48.33;27.70;;;9.90;99.90;;;;;;5039084;28;20593;-72
2023/03/19 00:06:21;;;;;;;43.17;28.07;;;9.90;99.90;;;;;;5035911;28;20648;-74
2023/03/19 00:08:47;;;;;;;48.63;29.67;;;9.90;99.90;;;;;;5044190;28;20446;-69
2023/03/19 00:11:13;;;;;;;48.30;28.60;;;10.00;99.90;;;;;;5041823;28;20433;-72
2023/03/19 00:13:39;;;;;;;59.30;30.50;;;10.00;99.90;;;;;;5042645;28;20396;-68
2023/03/19 00:16:06;;;;;;;46.60;28.97;;;10.00;99.90;;;;;;5055768;28;20368;-69
2023/03/19 00:18:32;;;;;;;49.07;32.93;;;10.10;99.90;;;;;;5045066;28;20389;-73
2023/03/19 00:20:58;;;;;;;51.07;28.67;;;10.10;99.90;;;;;;5034113;28;20436;-69
2023/03/19 00:23:24;;;;;;;53.27;30.10;;;10.10;99.90;;;;;;5043116;28;20446;-69
2023/03/19 00:25:49;;;;;;;47.70;30.17;;;10.10;99.90;;;;;;5055158;28;20459;-72
2023/03/19 00:28:15;;;;;;;51.93;30.60;;;10.10;99.90;;;;;;5041232;28;20185;-73
2023/03/19 00:30:43;;;;;;;49.40;30.07;;;10.10;99.90;;;;;;5034445;28;20218;-70
2023/03/19 00:33:09;;;;;;;48.53;29.37;;;10.10;99.90;;;;;;5053244;28;20419;-74
2023/03/19 00:35:35;;;;;;;51.70;31.10;;;10.10;99.90;;;;;;5039558;28;20412;-74
2023/03/19 00:38:01;;;;;;;48.67;29.20;;;10.00;99.90;;;;;;5035453;28;20163;-74
2023/03/19 00:40:26;;;;;;;45.60;30.40;;;10.00;99.90;;;;;;5046479;28;20179;-76
2023/03/19 00:42:52;;;;;;;44.63;27.50;;;10.00;99.90;;;;;;5055009;28;20187;-71
2023/03/19 00:45:18;;;;;;;50.17;29.47;;;10.00;99.90;;;;;;5052894;28;20210;-75
2023/03/19 00:47:44;;;;;;;52.73;28.67;;;10.00;99.90;;;;;;5055217;28;20401;-74
2023/03/19 00:50:10;;;;;;;46.10;28.37;;;9.90;99.90;;;;;;5047825;28;20258;-69
2023/03/19 00:52:36;;;;;;;44.07;28.20;;;9.90;99.90;;;;;;5054284;28;20248;-74
2023/03/19 00:55:01;;;;;;;48.47;29.20;;;9.90;99.90;;;;;;5046488;28;21007;-71
2023/03/19 00:57:27;;;;;;;51.30;28.30;;;9.90;99.90;;;;;;5033808;28;20198;-74
2023/03/19 00:59:53;;;;;;;44.57;28.00;;;9.80;99.90;;;;;;5038608;28;20795;-74
2023/03/19 01:02:18;;;;;;;49.27;30.07;;;9.80;99.90;;;;;;5040526;28;20288;-71
2023/03/19 01:04:47;;;;;;;42.13;27.87;;;9.80;99.90;;;;;;5037324;28;20178;-71
2023/03/19 01:07:13;;;;;;;48.00;29.40;;;9.80;99.90;;;;;;5054424;28;20171;-77
2023/03/19 01:09:40;;;;;;;51.40;27.80;;;9.80;99.90;;;;;;5036278;28;20837;-71
2023/03/19 01:12:06;;;;;;;51.70;28.93;;;9.80;99.90;;;;;;5053116;28;20205;-70
2023/03/19 01:14:32;;;;;;;48.00;29.33;;;9.70;99.90;;;;;;5053081;28;20414;-72
2023/03/19 01:16:59;;;;;;;48.77;30.30;;;9.70;99.90;;;;;;5033995;28;20394;-72
2023/03/19 01:19:25;;;;;;;45.50;30.97;;;9.70;99.90;;;;;;5034927;28;20400;-74
2023/03/19 01:21:51;;;;;;;44.63;28.70;;;9.70;99.90;;;;;;5033530;28;20409;-71
2023/03/19 01:24:16;;;;;;;50.37;30.57;;;9.70;99.90;;;;;;5043099;28;20418;-72
2023/03/19 01:26:42;;;;;;;44.70;28.43;;;9.70;99.90;;;;;;5053148;28;20261;-75
2023/03/19 01:29:08;;;;;;;46.23;30.73;;;9.70;99.90;;;;;;5046651;28;20591;-72
2023/03/19 01:31:36;;;;;;;48.63;28.93;;;9.70;99.90;;;;;;5032677;28;20475;-75
2023/03/19 01:34:02;;;;;;;48.63;28.93;;;9.70;99.90;;;;;;5032870;28;20807;-75
2023/03/19 01:36:28;;;;;;;46.50;30.10;;;9.60;99.90;;;;;;5034212;28;20437;-71
2023/03/19 01:38:55;;;;;;;47.40;30.93;;;9.60;99.90;;;;;;5041766;28;20474;-75
2023/03/19 01:41:22;;;;;;;45.10;27.30;;;9.60;99.90;;;;;;5053024;28;20490;-73
2023/03/19 01:43:48;;;;;;;43.53;29.50;;;9.60;99.90;;;;;;5047184;28;20476;-75
2023/03/19 01:46:19;;;;;;;42.23;27.53;;;9.50;99.90;;;;;;5033530;28;20438;-75
2023/03/19 01:48:49;;;;;;;45.03;29.17;;;9.50;99.90;;;;;;5037976;28;20218;-74
2023/03/19 01:51:17;;;;;;;48.47;29.10;;;9.40;99.90;;;;;;5051960;28;20489;-76
2023/03/19 01:53:46;;;;;;;50.97;27.60;;;9.40;99.90;;;;;;5041749;28;20400;-75
2023/03/19 01:56:18;;;;;;;52.73;30.97;;;9.40;99.90;;;;;;5053882;28;20383;-76
2023/03/19 01:58:47;;;;;;;54.17;30.90;;;9.30;99.90;;;;;;5048236;28;20479;-71
2023/03/19 02:01:14;;;;;;;47.47;29.40;;;9.30;99.90;;;;;;5032242;28;20417;-74
2023/03/19 02:03:41;;;;;;;54.17;30.37;;;9.30;99.90;;;;;;5035943;28;20478;-72
2023/03/19 02:06:09;;;;;;;49.43;29.27;;;9.30;99.90;;;;;;5051689;28;20399;-71
2023/03/19 02:08:37;;;;;;;52.10;32.20;;;9.30;99.90;;;;;;5053061;28;20533;-71
2023/03/19 02:11:04;;;;;;;49.20;29.80;;;9.30;99.90;;;;;;5031598;28;21042;-71
2023/03/19 02:13:29;;;;;;;48.33;31.20;;;9.30;99.90;;;;;;5044284;28;20400;-70
2023/03/19 02:15:55;;;;;;;48.10;31.40;;;9.30;99.90;;;;;;5033445;28;20708;-76
2023/03/19 02:18:22;;;;;;;45.60;30.10;;;9.30;99.90;;;;;;5049527;28;20179;-71
2023/03/19 02:21:11;;;;;;;54.30;30.50;;;9.30;99.90;;;;;;5052161;28;20174;-72
2023/03/19 02:23:49;;;;;;;49.63;29.33;;;9.20;99.90;;;;;;5045207;28;20765;-74
2023/03/19 02:26:17;;;;;;;54.10;30.00;;;9.20;99.90;;;;;;5038268;28;20399;-72
2023/03/19 02:28:46;;;;;;;47.87;30.40;;;9.20;99.90;;;;;;5046744;28;20415;-73
2023/03/19 02:31:13;;;;;;;44.87;29.30;;;9.20;99.90;;;;;;5045081;28;20578;-75
2023/03/19 02:33:39;;;;;;;44.87;27.37;;;9.20;99.90;;;;;;5032130;28;20419;-76
2023/03/19 02:36:14;;;;;;;43.40;28.37;;;9.20;99.90;;;;;;5035291;28;20384;-75
2023/03/19 02:38:41;;;;;;;52.23;29.80;;;9.10;99.90;;;;;;5051859;28;20829;-75
2023/03/19 02:41:08;;;;;;;45.33;28.37;;;9.10;1.00;;;;;;5049447;28;20449;-75
2023/03/19 02:43:37;;;;;;;44.80;25.70;;;9.10;1.00;;;;;;5037793;28;20391;-74
2023/03/19 02:46:05;;;;;;;45.60;27.20;;;9.10;1.00;;;;;;5051282;28;20420;-71
2023/03/19 02:48:32;;;;;;;42.10;25.43;;;9.10;1.00;;;;;;5032761;28;20500;-70
2023/03/19 02:50:58;;;;;;;40.37;28.17;;;9.10;1.00;;;;;;5032213;28;20444;-75
2023/03/19 02:53:24;;;;;;;51.03;29.03;;;9.10;1.00;;;;;;5033085;28;20459;-71
2023/03/19 02:55:50;;;;;;;49.67;30.23;;;9.10;1.00;;;;;;5033093;28;20428;-77
2023/03/19 02:58:16;;;;;;;43.23;27.03;;;9.10;1.00;;;;;;5051444;28;20387;-73
2023/03/19 03:00:42;;;;;;;38.60;26.20;;;9.10;1.00;;;;;;5044459;28;20734;-73
2023/03/19 03:03:08;;;;;;;38.50;25.93;;;9.20;1.00;;;;;;5052249;28;20438;-71
2023/03/19 03:05:34;;;;;;;43.30;29.10;;;9.20;1.00;;;;;;5052885;28;20677;-75
2023/03/19 03:08:00;;;;;;;45.07;26.30;;;9.10;1.00;;;;;;5033782;28;20405;-75
2023/03/19 03:10:26;;;;;;;39.23;25.73;;;9.10;1.00;;;;;;5037898;28;20772;-71
2023/03/19 03:12:52;;;;;;;52.57;27.07;;;9.00;1.00;;;;;;5036174;28;20682;-73
2023/03/19 03:15:17;;;;;;;45.50;27.57;;;9.00;1.00;;;;;;5032820;28;20474;-71
2023/03/19 03:17:44;;;;;;;44.37;26.47;;;8.90;1.00;;;;;;5041076;28;20181;-71
2023/03/19 03:20:13;;;;;;;38.43;25.60;;;8.80;1.00;;;;;;5051763;28;20209;-71
2023/03/19 03:22:39;;;;;;;42.63;27.50;;;8.80;99.90;;;;;;5038725;28;20458;-71
2023/03/19 03:25:06;;;;;;;45.93;26.50;;;8.70;99.90;;;;;;5031537;28;20426;-71
2023/03/19 03:27:32;;;;;;;41.13;24.33;;;8.70;99.90;;;;;;5043376;28;20396;-72
2023/03/19 03:29:58;;;;;;;45.50;25.77;;;8.60;99.90;;;;;;5052341;28;20389;-71
2023/03/19 03:32:24;;;;;;;45.40;28.30;;;8.60;99.90;;;;;;5039915;28;20972;-70
2023/03/19 03:34:50;;;;;;;35.23;25.27;;;8.50;99.90;;;;;;5044335;28;20189;-71
2023/03/19 03:37:16;;;;;;;43.47;26.87;;;8.50;99.90;;;;;;5047475;28;20532;-75
2023/03/19 03:39:42;;;;;;;38.13;24.73;;;8.50;99.90;;;;;;5035787;28;20425;-71
2023/03/19 03:42:08;;;;;;;37.33;24.83;;;8.40;99.90;;;;;;5041648;28;20489;-74
2023/03/19 03:44:33;;;;;;;42.90;25.03;;;8.40;99.90;;;;;;5056297;28;20258;-71
2023/03/19 03:46:59;;;;;;;41.40;24.33;;;8.40;99.90;;;;;;5046940;28;20174;-71
2023/03/19 03:49:25;;;;;;;36.30;22.90;;;8.40;99.90;;;;;;5035355;28;20567;-74
2023/03/19 03:51:51;;;;;;;39.70;24.47;;;8.40;99.90;;;;;;5042694;28;20332;-71
2023/03/19 03:54:17;;;;;;;33.33;22.67;;;8.40;1.00;;;;;;5039306;28;20209;-76
2023/03/19 03:56:42;;;;;;;37.03;24.67;;;8.50;1.00;;;;;;5040316;28;20434;-74
2023/03/19 03:59:08;;;;;;;36.23;23.47;;;8.60;1.00;;;;;;5054569;28;20173;-76
2023/03/19 04:01:34;;;;;;;41.87;23.13;;;8.60;1.00;;;;;;5046715;28;20195;-72
2023/03/19 04:04:00;;;;;;;34.50;22.70;;;8.70;1.00;;;;;;5034555;28;20180;-75
2023/03/19 04:06:26;;;;;;;32.13;22.90;;;8.70;1.00;;;;;;5039962;28;20418;-75
2023/03/19 04:08:52;;;;;;;37.43;22.97;;;8.70;1.00;;;;;;5043973;28;20240;-72
2023/03/19 04:11:19;;;;;;;38.87;23.70;;;8.70;1.00;;;;;;5048862;28;20487;-75
2023/03/19 04:13:45;;;;;;;29.50;21.60;;;8.70;1.00;;;;;;5035834;28;20624;-74
2023/03/19 04:16:11;;;;;;;34.27;22.23;;;8.70;1.00;;;;;;5038449;28;20477;-75
2023/03/19 04:18:37;;;;;;;36.10;24.10;;;8.70;1.00;;;;;;5055087;28;20495;-70
2023/03/19 04:21:04;;;;;;;37.37;21.50;;;8.70;1.00;;;;;;5051801;28;20412;-74
2023/03/19 04:23:31;;;;;;;38.33;22.77;;;8.70;1.00;;;;;;5035112;28;20413;-75
2023/03/19 04:26:02;;;;;;;29.43;20.10;;;8.70;1.00;;;;;;5037374;28;20389;-76
2023/03/19 04:28:29;;;;;;;33.87;22.90;;;8.70;1.00;;;;;;5035573;28;20384;-70
2023/03/19 04:30:59;;;;;;;33.83;21.67;;;8.70;1.00;;;;;;5042989;28;20501;-75
2023/03/19 04:33:25;;;;;;;40.17;23.23;;;8.60;1.00;;;;;;5055535;28;20375;-75
2023/03/19 04:35:50;;;;;;;30.63;21.10;;;8.50;1.00;;;;;;5043910;28;20401;-75
2023/03/19 04:38:17;;;;;;;34.03;22.80;;;8.40;1.00;;;;;;5033892;28;20170;-72
2023/03/19 04:40:42;;;;;;;36.20;23.13;;;8.30;1.00;;;;;;5040211;28;20166;-72
2023/03/19 04:43:08;;;;;;;33.83;21.53;;;8.30;1.00;;;;;;5042681;28;20430;-71
2023/03/19 04:45:34;;;;;;;30.93;22.10;;;8.20;1.00;;;;;;5037950;28;20213;-73
2023/03/19 04:48:00;;;;;;;33.63;20.30;;;8.10;1.00;;;;;;5055120;28;20199;-75
2023/03/19 04:50:26;;;;;;;31.20;21.37;;;8.10;1.00;;;;;;5047480;28;20425;-71
2023/03/19 04:52:52;;;;;;;30.03;20.30;;;8.00;1.00;;;;;;5053451;28;20430;-75
2023/03/19 04:55:18;;;;;;;34.93;20.60;;;8.00;1.00;;;;;;5052197;28;20729;-72
2023/03/19 04:57:43;;;;;;;29.90;19.67;;;8.10;1.00;;;;;;5034981;28;20250;-71
2023/03/19 05:00:10;;;;;;;29.67;19.80;;;8.00;1.00;;;;;;5041799;28;20178;-76
2023/03/19 05:02:37;;;;;;;26.00;18.00;;;8.00;1.00;;;;;;5033413;28;20747;-74
2023/03/19 05:05:03;;;;;;;30.17;19.70;;;7.90;1.00;;;;;;5035503;28;20397;-75
2023/03/19 05:07:28;;;;;;;26.60;17.80;;;7.90;1.00;;;;;;5054878;28;20408;-75
2023/03/19 05:09:54;;;;;;;23.00;15.80;;;7.90;1.00;;;;;;5053107;28;20405;-73
2023/03/19 05:12:20;;;;;;;28.27;17.80;;;7.80;1.00;;;;;;5033490;28;20207;-75
2023/03/19 05:14:45;;;;;;;24.70;17.93;;;7.80;1.00;;;;;;5036301;28;20182;-75
2023/03/19 05:17:14;;;;;;;24.60;18.23;;;7.80;1.00;;;;;;5044022;28;20181;-75
2023/03/19 05:19:39;;;;;;;32.73;17.83;;;7.80;1.00;;;;;;5054386;28;20614;-72
2023/03/19 05:22:05;;;;;;;27.53;18.53;;;7.80;1.00;;;;;;5052303;28;20454;-71
2023/03/19 05:24:31;;;;;;;27.40;17.47;;;7.80;1.00;;;;;;5034970;28;20270;-75
2023/03/19 05:26:57;;;;;;;24.67;17.43;;;7.80;1.00;;;;;;5034336;28;20174;-71
2023/03/19 05:29:22;;;;;;;27.17;19.43;;;7.80;1.00;;;;;;5045828;28;20182;-71
2023/03/19 05:31:48;;;;;;;26.80;18.90;;;7.90;1.00;;;;;;5032706;28;20260;-74
2023/03/19 05:34:14;;;;;;;26.63;17.27;;;7.90;1.00;;;;;;5033498;28;20450;-72
2023/03/19 05:36:40;;;;;;;28.07;18.43;;;7.90;1.00;;;;;;5037768;28;20327;-75
2023/03/19 05:39:06;;;;;;;23.07;17.33;;;8.00;1.00;;;;;;5034124;28;20388;-72
2023/03/19 05:41:32;;;;;;;27.13;17.60;;;8.00;1.00;;;;;;5033402;28;20195;-71
2023/03/19 05:43:58;;;;;;;27.07;16.97;;;8.10;1.00;;;;;;5053320;28;20774;-73
2023/03/19 05:46:24;;;;;;;22.93;16.10;;;8.10;1.00;;;;;;5041103;28;20257;-75
2023/03/19 05:48:50;;;;;;;23.50;16.50;;;8.20;1.00;;;;;;5033003;28;20192;-71
2023/03/19 05:51:16;;;;;;;22.50;16.43;;;8.20;1.00;;;;;;5033864;28;20746;-76
2023/03/19 05:53:41;;;;;;;22.07;16.50;;;8.30;1.00;;;;;;5033897;28;20513;-74
2023/03/19 05:56:07;;;;;;;24.60;17.00;;;8.40;1.00;;;;;;5044992;28;20524;-71
2023/03/19 05:58:33;;;;;;;21.40;16.33;;;8.40;1.00;;;;;;5053756;28;20698;-74
2023/03/19 06:00:59;;;;;;;20.93;15.10;;;8.50;1.00;;;;;;5039754;28;20421;-75
2023/03/19 06:03:26;;;;;;;20.20;14.70;;;8.50;1.00;;;;;;5033492;28;20528;-77
2023/03/19 06:05:52;;;;;;;21.07;14.70;;;8.60;1.00;;;;;;5041591;28;20396;-75
2023/03/19 06:08:18;;;;;;;21.50;15.40;;;8.60;1.00;;;;;;5041049;28;20413;-76
2023/03/19 06:10:44;;;;;;;24.50;15.43;;;8.60;1.00;;;;;;5039624;28;20581;-71
2023/03/19 06:13:10;;;;;;;20.07;15.47;;;8.60;1.00;;;;;;5054265;28;20398;-71
2023/03/19 06:15:36;;;;;;;21.13;14.47;;;8.70;1.00;;;;;;5039382;28;20181;-73
2023/03/19 06:18:02;;;;;;;21.87;15.23;;;8.70;1.00;;;;;;5033545;28;20469;-71
2023/03/19 06:20:27;;;;;;;19.10;13.83;;;8.80;1.00;;;;;;5032694;28;20181;-74
2023/03/19 06:22:53;;;;;;;20.03;14.90;;;8.80;1.00;;;;;;5031677;28;20517;-72
2023/03/19 06:25:19;;;;;;;21.67;14.80;;;8.90;1.00;;;;;;5043169;28;20669;-71
2023/03/19 06:27:45;;;;;;;20.90;13.87;;;8.90;1.00;;;;;;5041410;28;20217;-71
2023/03/19 06:30:11;;;;;;;18.93;14.00;;;8.90;1.00;;;;;;5036957;28;20176;-75
2023/03/19 06:32:37;;;;;;;19.40;13.73;;;9.00;1.00;;;;;;5033497;28;20229;-71
2023/03/19 06:35:04;;;;;;;17.50;13.73;;;9.00;1.00;;;;;;5032013;28;20946;-71
2023/03/19 06:37:29;;;;;;;17.20;13.53;;;9.00;1.00;;;;;;5033302;28;20179;-71
2023/03/19 06:39:55;;;;;;;24.37;13.70;;;9.10;1.00;;;;;;5050873;28;20757;-76
2023/03/19 06:42:21;;;;;;;18.57;13.83;;;9.10;1.00;;;;;;5037870;28;20218;-72
2023/03/19 06:44:47;;;;;;;16.87;12.93;;;9.20;1.00;;;;;;5052702;28;20181;-71
2023/03/19 06:47:13;;;;;;;18.57;13.37;;;9.20;1.00;;;;;;5051957;28;20390;-71
2023/03/19 06:49:39;;;;;;;13.50;12.07;;;9.20;1.00;;;;;;5034603;28;20742;-74
2023/03/19 06:52:06;;;;;;;17.97;12.87;;;9.20;1.00;;;;;;5030857;28;21296;-74
2023/03/19 06:54:31;;;;;;;16.70;14.00;;;9.20;1.00;;;;;;5048043;28;20529;-75
2023/03/19 06:56:58;;;;;;;18.13;12.93;;;9.20;1.00;;;;;;5041814;28;20517;-73
2023/03/19 06:59:24;;;;;;;17.57;13.57;;;9.30;1.00;;;;;;5034488;28;20393;-71
2023/03/19 07:01:49;;;;;;;24.97;15.40;;;9.30;1.00;;;;;;5031293;28;20578;-73
2023/03/19 07:04:15;;;;;;;15.67;12.77;;;9.40;1.00;;;;;;5044569;28;20487;-71
2023/03/19 07:06:41;;;;;;;21.23;13.70;;;9.50;1.00;;;;;;5039753;28;20180;-73
2023/03/19 07:09:07;;;;;;;21.37;15.40;;;9.70;1.00;;;;;;5042828;28;20190;-74
2023/03/19 07:11:32;;;;;;;19.60;13.80;;;9.80;1.00;;;;;;5036179;28;20989;-72
2023/03/19 07:13:58;;;;;;;22.00;14.77;;;9.80;1.00;;;;;;5034690;28;20179;-70
2023/03/19 07:16:24;;;;;;;22.80;16.10;;;9.90;1.00;;;;;;5038979;28;20630;-75
2023/03/19 07:18:50;;;;;;;22.60;15.90;;;9.90;1.00;;;;;;5045390;28;20241;-75
2023/03/19 07:21:15;;;;;;;28.47;15.67;;;10.00;1.00;;;;;;5049273;28;20216;-74
2023/03/19 07:23:41;;;;;;;20.93;16.30;;;10.10;1.00;;;;;;5036704;28;20385;-74
2023/03/19 07:26:07;;;;;;;19.80;15.83;;;10.10;1.00;;;;;;5040927;28;20210;-71
2023/03/19 07:28:33;;;;;;;18.80;15.00;;;10.10;1.00;;;;;;5039831;28;20186;-71
2023/03/19 07:30:59;;;;;;;18.07;14.40;;;10.20;1.00;;;;;;5036816;28;20226;-71
2023/03/19 07:33:25;;;;;;;17.37;14.93;;;10.20;1.00;;;;;;5042619;28;20406;-73
2023/03/19 07:35:51;;;;;;;20.13;14.30;;;10.20;1.00;;;;;;5036038;28;20392;-75
2023/03/19 07:38:16;;;;;;;18.17;13.87;;;10.30;1.00;;;;;;5056332;28;20446;-72
2023/03/19 07:40:42;;;;;;;19.17;15.50;;;10.40;1.00;;;;;;5053237;28;20183;-75
2023/03/19 07:43:08;;;;;;;19.43;14.90;;;10.50;1.00;;;;;;5039408;28;20191;-71
2023/03/19 07:45:33;;;;;;;23.70;15.47;;;10.60;1.00;;;;;;5048726;28;20409;-74
2023/03/19 07:48:02;;;;;;;17.10;14.80;;;10.60;1.00;;;;;;5055428;28;20211;-71
2023/03/19 07:50:30;;;;;;;18.77;14.53;;;10.60;1.00;;;;;;5039888;28;20651;-71
2023/03/19 07:52:56;;;;;;;19.07;15.57;;;10.70;1.00;;;;;;5052163;28;20467;-75
2023/03/19 07:55:22;;;;;;;18.73;14.00;;;10.80;1.00;;;;;;5037305;28;20431;-73
2023/03/19 07:57:48;;;;;;;17.50;13.87;;;10.80;1.00;;;;;;5036236;28;20996;-69
2023/03/19 08:00:14;;;;;;;18.17;13.97;;;10.90;1.00;;;;;;5053438;28;20405;-71
2023/03/19 08:02:41;;;;;;;17.87;13.37;;;11.00;1.00;;;;;;5047590;28;20205;-73
2023/03/19 08:05:08;;;;;;;15.90;12.70;;;11.10;1.00;;;;;;5043038;28;20440;-73
2023/03/19 08:07:34;;;;;;;21.77;13.20;;;11.20;1.00;;;;;;5039858;28;20479;-69
2023/03/19 08:10:01;;;;;;;16.43;12.93;;;11.30;1.00;;;;;;5035743;28;20459;-70
2023/03/19 08:12:26;;;;;;;17.23;12.50;;;11.40;1.00;;;;;;5032925;28;20441;-70
2023/03/19 08:14:52;;;;;;;16.47;11.50;;;11.50;1.00;;;;;;5035829;28;20385;-71
2023/03/19 08:17:18;;;;;;;15.37;11.83;;;11.50;1.00;;;;;;5035343;28;20180;-73
2023/03/19 08:19:44;;;;;;;17.80;13.40;;;11.50;1.00;;;;;;5036137;28;20235;-70
2023/03/19 08:22:10;;;;;;;13.57;12.17;;;11.60;1.00;;;;;;5053847;28;20412;-73
2023/03/19 08:24:36;;;;;;;17.43;12.50;;;11.60;1.00;;;;;;5054558;28;20398;-73
2023/03/19 08:27:02;;;;;;;15.20;12.80;;;11.70;1.00;;;;;;5054104;28;20384;-73
2023/03/19 08:29:28;;;;;;;11.63;10.53;;;11.70;1.00;;;;;;5055692;28;20163;-73
2023/03/19 08:31:55;;;;;;;12.53;11.20;;;11.80;1.00;;;;;;5037788;28;21016;-73
2023/03/19 08:34:21;;;;;;;14.97;10.57;;;11.70;1.00;;;;;;5035491;28;20516;-73
2023/03/19 08:36:47;;;;;;;11.23;10.13;;;11.70;1.00;;;;;;5035450;28;20508;-70
2023/03/19 08:39:14;;;;;;;13.23;10.60;;;11.80;1.00;;;;;;5034147;28;20463;-72
2023/03/19 08:41:39;;;;;;;12.90;10.87;;;11.80;1.00;;;;;;5034735;28;20922;-73
2023/03/19 08:44:05;;;;;;;13.03;10.20;;;11.80;1.00;;;;;;5035442;28;20506;-70
2023/03/19 08:46:32;;;;;;;14.93;10.80;;;11.80;1.00;;;;;;5055171;28;20853;-70
2023/03/19 08:48:58;;;;;;;13.27;10.43;;;11.90;1.00;;;;;;5054617;28;20383;-73
2023/03/19 08:51:25;;;;;;;14.37;10.43;;;12.00;1.00;;;;;;5053911;28;20447;-69
2023/03/19 08:53:51;;;;;;;10.40;9.30;;;12.00;99.90;;;;;;5055067;28;20395;-73
2023/03/19 08:56:17;;;;;;;10.50;9.50;;;12.00;99.90;;;;;;5054956;28;20713;-71
2023/03/19 08:58:44;;;;;;;13.70;9.90;;;12.10;99.90;;;;;;5049943;28;20640;-73
2023/03/19 09:01:12;;;;;;;11.40;9.67;;;12.10;99.90;;;;;;5053982;28;20182;-73
2023/03/19 09:03:40;;;;;;;15.93;9.83;;;12.20;99.90;;;;;;5054842;28;20543;-73
2023/03/19 09:06:08;;;;;;;10.47;9.37;;;12.30;99.90;;;;;;5055021;28;20376;-69
2023/03/19 09:08:35;;;;;;;11.30;10.10;;;12.30;99.90;;;;;;5054101;28;20411;-70
2023/03/19 09:11:01;;;;;;;11.33;10.03;;;12.30;99.90;;;;;;5054638;28;20424;-70
2023/03/19 09:13:26;;;;;;;11.30;10.13;;;12.30;99.90;;;;;;5052979;28;20440;-69
2023/03/19 09:15:52;;;;;;;13.13;10.43;;;12.40;99.90;;;;;;5041258;28;20433;-73
2023/03/19 09:18:19;;;;;;;14.20;10.93;;;12.50;99.90;;;;;;5034751;28;20172;-73
2023/03/19 09:20:46;;;;;;;13.87;9.70;;;12.50;99.90;;;;;;5033795;28;20972;-73
2023/03/19 09:23:12;;;;;;;10.27;9.20;;;12.50;99.90;;;;;;5034476;28;20389;-70
2023/03/19 09:25:38;;;;;;;10.67;9.57;;;12.50;99.90;;;;;;5034296;28;20477;-68
2023/03/19 09:28:03;;;;;;;16.60;9.53;;;12.50;99.90;;;;;;5034193;28;20478;-69
2023/03/19 09:30:30;;;;;;;10.27;9.30;;;12.50;99.90;;;;;;5050419;28;20254;-70
2023/03/19 09:32:56;;;;;;;11.63;9.17;;;12.60;99.90;;;;;;5052982;28;20206;-70
2023/03/19 09:35:21;;;;;;;10.80;9.70;;;12.70;99.90;;;;;;5054380;28;20401;-69
2023/03/19 09:37:48;;;;;;;10.47;9.33;;;12.70;99.90;;;;;;5054221;28;20182;-74
2023/03/19 09:40:56;;;;;;;9.43;8.53;;;12.80;99.90;;;;;;5053462;28;20174;-74
2023/03/19 09:43:36;;;;;;;9.73;8.37;;;13.00;99.90;;;;;;5047113;28;20477;-70
2023/03/19 09:46:10;;;;;;;9.07;8.10;;;13.10;99.90;;;;;;5034256;28;20456;-73
2023/03/19 09:48:56;;;;;;;9.27;8.37;;;13.30;99.90;;;;;;5039377;28;20798;-69
2023/03/19 09:52:08;;;;;;;11.07;9.50;;;13.50;99.90;;;;;;5053086;28;20461;-69
2023/03/19 09:54:57;;;;;;;8.77;7.90;;;13.90;99.90;;;;;;5053000;28;20406;-69
2023/03/19 09:57:23;;;;;;;9.23;8.40;;;14.60;99.90;;;;;;5051104;28;20790;-72
2023/03/19 09:59:49;;;;;;;7.67;6.97;;;15.20;99.90;;;;;;5040101;28;20422;-70
2023/03/19 10:02:42;;;;;;;7.50;6.33;;;15.50;99.90;;;;;;5032436;28;20421;-74
2023/03/19 10:05:40;;;;;;;8.17;6.33;;;15.80;99.90;;;;;;5036025;28;20182;-72
2023/03/19 10:08:38;;;;;;;7.97;6.23;;;16.20;99.90;;;;;;5052288;28;20417;-68
2023/03/19 10:11:28;;;;;;;7.37;6.67;;;15.90;99.90;;;;;;5052529;28;20495;-69
2023/03/19 10:14:17;;;;;;;11.97;7.83;;;15.50;99.90;;;;;;5053631;28;20723;-69
2023/03/19 10:16:46;;;;;;;11.00;7.27;;;15.20;99.90;;;;;;5053711;28;20749;-73
2023/03/19 10:19:20;;;;;;;8.00;6.67;;;15.00;99.90;;;;;;5052747;28;20389;-69
2023/03/19 10:21:55;;;;;;;7.23;6.53;;;14.90;99.90;;;;;;5051943;28;20422;-74
2023/03/19 10:24:32;;;;;;;7.43;6.77;;;14.80;99.90;;;;;;5033472;28;20405;-72
2023/03/19 10:27:01;;;;;;;6.80;6.30;;;14.90;99.90;;;;;;5048735;28;20429;-74
2023/03/19 10:29:27;;;;;;;10.13;7.00;;;15.00;99.90;;;;;;5053344;28;20732;-73
2023/03/19 10:32:27;;;;;;;7.03;6.33;;;15.20;99.90;;;;;;5051102;28;20468;-73
2023/03/19 10:34:53;;;;;;;5.47;4.97;;;15.30;94.10;;;;;;5052420;28;20423;-73
2023/03/19 10:37:21;;;;;;;5.97;5.47;;;15.80;99.50;;;;;;5053149;28;20969;-73
2023/03/19 10:39:49;;;;;;;4.60;4.20;;;16.40;94.30;;;;;;5049970;28;20508;-75
2023/03/19 10:42:42;;;;;;;5.53;4.97;;;16.90;94.60;;;;;;5032167;28;20512;-74
2023/03/19 10:45:22;;;;;;;4.53;3.53;;;17.60;90.70;;;;;;5031866;28;20766;-69
2023/03/19 10:47:48;;;;;;;6.03;4.20;;;18.00;71.40;;;;;;5031960;28;20520;-69
2023/03/19 10:50:18;;;;;;;4.00;3.53;;;18.20;48.40;;;;;;5032147;28;20468;-74
2023/03/19 10:52:50;;;;;;;4.93;4.43;;;18.00;26.50;;;;;;5031834;28;20477;-69
2023/03/19 10:55:24;;;;;;;3.40;3.13;;;18.50;32.60;;;;;;5033319;28;20408;-71
2023/03/19 10:57:55;;;;;;;4.03;3.57;;;18.40;9.80;;;;;;5033190;28;20409;-73
2023/03/19 11:00:28;;;;;;;5.90;3.13;;;17.90;1.00;;;;;;5046708;28;20495;-71
2023/03/19 11:02:55;;;;;;;3.87;3.20;;;17.60;1.00;;;;;;5052813;28;20452;-73
2023/03/19 11:05:20;;;;;;;3.60;3.30;;;17.40;1.00;;;;;;5052924;28;20413;-72
2023/03/19 11:08:12;;;;;;;4.53;3.10;;;17.20;1.00;;;;;;5052668;28;20798;-68
2023/03/19 11:10:45;;;;;;;3.37;3.13;;;16.90;1.00;;;;;;5051962;28;20604;-71
2023/03/19 11:13:23;;;;;;;3.60;3.30;;;16.50;1.00;;;;;;5050367;28;20521;-66
2023/03/19 11:15:49;;;;;;;3.00;2.80;;;16.50;1.00;;;;;;5042353;28;20463;-70
2023/03/19 11:18:22;;;;;;;4.23;3.13;;;16.20;1.00;;;;;;5049649;28;20413;-72
2023/03/19 11:21:00;;;;;;;4.30;3.20;;;15.90;1.00;;;;;;5051991;28;20389;-70
2023/03/19 11:23:36;;;;;;;4.00;3.70;;;15.60;1.00;;;;;;5052882;28;20449;-70
2023/03/19 11:26:02;;;;;;;5.10;3.83;;;15.50;1.00;;;;;;5052588;28;20405;-71
2023/03/19 11:28:32;;;;;;;4.57;4.20;;;15.30;1.00;;;;;;5044890;28;20505;-72
2023/03/19 11:30:58;;;;;;;4.60;4.20;;;15.20;1.00;;;;;;5033329;28;20429;-72
2023/03/19 11:33:37;;;;;;;5.47;3.73;;;15.10;1.00;;;;;;5030952;28;20950;-73
2023/03/19 11:36:21;;;;;;;5.77;5.27;;;15.00;1.00;;;;;;5032284;28;20155;-71
2023/03/19 11:38:53;;;;;;;3.87;3.67;;;15.00;1.10;;;;;;5031476;28;20505;-69
2023/03/19 11:41:22;;;;;;;5.13;4.00;;;14.90;2.60;;;;;;5031722;28;20422;-72
2023/03/19 11:44:14;;;;;;;5.00;4.33;;;14.90;8.30;;;;;;5032218;28;20422;-72
2023/03/19 11:46:46;;;;;;;4.70;4.27;;;14.90;10.50;;;;;;5049922;28;20465;-69
2023/03/19 11:49:41;;;;;;;5.40;4.47;;;15.00;10.70;;;;;;5052049;28;20504;-70
2023/03/19 11:52:19;;;;;;;4.00;3.70;;;15.00;14.00;;;;;;5051376;28;20468;-69
2023/03/19 11:55:03;;;;;;;4.57;4.27;;;15.00;14.20;;;;;;5053555;28;20405;-70
2023/03/19 11:57:50;;;;;;;4.70;3.57;;;15.10;19.40;;;;;;5054317;28;20417;-72
2023/03/19 12:00:34;;;;;;;5.97;4.97;;;15.20;24.10;;;;;;5046018;28;20405;-73
2023/03/19 12:03:06;;;;;;;4.97;4.47;;;15.20;15.70;;;;;;5055880;28;20474;-72
2023/03/19 12:05:46;;;;;;;4.50;4.10;;;15.20;16.30;;;;;;5055137;28;20496;-72
2023/03/19 12:08:23;;;;;;;5.83;5.23;;;15.20;14.60;;;;;;5055844;28;20385;-71
2023/03/19 12:11:21;;;;;;;5.40;4.60;;;15.10;15.50;;;;;;5054722;28;20450;-73
2023/03/19 12:14:06;;;;;;;7.37;5.17;;;14.90;14.90;;;;;;5036179;28;20453;-73
2023/03/19 12:17:02;;;;;;;5.67;5.03;;;14.80;25.70;;;;;;5035802;28;20898;-73
2023/03/19 12:19:48;;;;;;;5.20;4.80;;;14.70;33.70;;;;;;5035534;28;20422;-70
2023/03/19 12:22:24;;;;;;;5.33;4.83;;;14.60;41.80;;;;;;5035294;28;20946;-71
2023/03/19 12:25:15;;;;;;;7.60;5.83;;;14.60;52.20;;;;;;5035825;28;20685;-70
2023/03/19 12:27:55;;;;;;;5.17;4.73;;;14.60;54.40;;;;;;5054900;28;20547;-72
2023/03/19 12:30:41;;;;;;;5.13;4.73;;;14.50;51.70;;;;;;5054415;28;20446;-70
2023/03/19 12:33:26;;;;;;;6.30;5.00;;;14.40;54.10;;;;;;5053337;28;20467;-70
2023/03/19 12:35:55;;;;;;;5.40;4.80;;;14.40;58.50;;;;;;5053838;28;20424;-72
2023/03/19 12:38:40;;;;;;;4.87;4.40;;;14.40;51.20;;;;;;5054339;28;20404;-72
2023/03/19 12:41:13;;;;;;;5.33;4.57;;;14.50;57.60;;;;;;5044221;28;20426;-73
2023/03/19 12:43:52;;;;;;;6.97;6.03;;;14.60;59.80;;;;;;5033969;28;20468;-73
2023/03/19 12:46:40;;;;;;;10.03;4.87;;;14.60;51.20;;;;;;5037436;28;20430;-71
2023/03/19 12:49:15;;;;;;;5.93;5.43;;;14.70;48.20;;;;;;5041312;28;20433;-73
2023/03/19 12:51:51;;;;;;;6.13;5.53;;;14.60;39.30;;;;;;5033923;28;20538;-73
2023/03/19 12:54:27;;;;;;;7.20;6.17;;;14.50;33.90;;;;;;5039326;28;20424;-70